createdAt,value
2018-08-21T00:00:52.984Z,72.00
2018-08-21T00:03:20.628Z,71.80
2018-08-21T00:05:48.026Z,71.90
2018-08-21T00:08:15.690Z,72.00
2018-08-21T00:10:43.045Z,71.60
2018-08-21T00:13:10.470Z,71.80
2018-08-21T00:15:37.830Z,72.20
2018-08-21T00:18:05.323Z,71.90
2018-08-21T00:20:32.677Z,72.20
2018-08-21T00:23:00.028Z,72.70
2018-08-21T00:25:27.468Z,72.20
2018-08-21T00:27:54.790Z,72.20
2018-08-21T00:30:36.778Z,72.10
2018-08-21T00:33:04.342Z,71.50
2018-08-21T00:35:31.723Z,73.10
2018-08-21T00:37:59.059Z,72.90
2018-08-21T00:40:26.390Z,72.10
2018-08-21T00:42:53.725Z,72.20
2018-08-21T00:45:21.031Z,72.20
2018-08-21T00:47:48.358Z,72.20
2018-08-21T00:50:15.664Z,72.10
2018-08-21T00:52:43.008Z,72.90
2018-08-21T00:55:10.367Z,72.40
2018-08-21T00:57:37.705Z,72.70
2018-08-21T01:00:06.930Z,73.40
2018-08-21T01:02:34.243Z,73.00
2018-08-21T01:05:01.543Z,73.50
2018-08-21T01:07:28.854Z,73.60
2018-08-21T01:09:56.175Z,73.90
2018-08-21T01:12:23.493Z,73.40
2018-08-21T01:14:50.905Z,73.20
2018-08-21T01:17:18.240Z,73.60
2018-08-21T01:19:45.545Z,73.80
2018-08-21T01:22:12.909Z,73.70
2018-08-21T01:24:40.252Z,73.90
2018-08-21T01:27:07.632Z,74.00
2018-08-21T01:29:34.989Z,73.60
2018-08-21T01:32:02.340Z,73.80
2018-08-21T01:34:29.681Z,73.80
2018-08-21T01:36:56.988Z,74.10
2018-08-21T01:39:24.319Z,73.80
2018-08-21T01:41:51.621Z,74.20
2018-08-21T01:44:18.939Z,74.30
2018-08-21T01:46:49.103Z,74.40
2018-08-21T01:49:16.395Z,74.40
2018-08-21T01:51:43.726Z,74.10
2018-08-21T01:54:11.858Z,73.90
2018-08-21T01:56:39.203Z,73.90
2018-08-21T01:59:06.509Z,74.00
2018-08-21T02:01:33.840Z,74.20
2018-08-21T02:04:01.169Z,74.30
2018-08-21T02:06:28.573Z,74.20
2018-08-21T02:08:55.904Z,73.70
2018-08-21T02:11:23.199Z,74.10
2018-08-21T02:13:50.558Z,73.50
2018-08-21T02:16:17.870Z,73.40
2018-08-21T02:18:45.203Z,73.90
2018-08-21T02:21:12.555Z,73.10
2018-08-21T02:23:39.903Z,73.20
2018-08-21T02:26:07.658Z,73.00
2018-08-21T02:28:34.973Z,73.00
2018-08-21T02:31:02.298Z,72.70
2018-08-21T02:33:29.685Z,72.50
2018-08-21T02:35:58.187Z,72.80
2018-08-21T02:38:26.513Z,72.80
2018-08-21T02:40:53.802Z,73.40
2018-08-21T02:43:21.144Z,73.00
2018-08-21T02:45:48.456Z,72.70
2018-08-21T02:48:18.002Z,73.00
2018-08-21T02:50:45.311Z,73.80
2018-08-21T02:53:12.615Z,73.80
2018-08-21T02:55:40.314Z,73.70
2018-08-21T02:58:07.675Z,73.50
2018-08-21T03:00:34.977Z,73.80
2018-08-21T03:03:02.280Z,73.80
2018-08-21T03:05:29.586Z,73.40
2018-08-21T03:07:57.185Z,73.50
2018-08-21T03:10:24.512Z,73.50
2018-08-21T03:12:51.829Z,73.40
2018-08-21T03:15:19.167Z,74.00
2018-08-21T03:17:46.515Z,73.60
2018-08-21T03:20:13.831Z,73.80
2018-08-21T03:22:41.150Z,74.10
2018-08-21T03:25:08.488Z,73.70
2018-08-21T03:27:35.805Z,74.40
2018-08-21T03:30:05.223Z,74.50
2018-08-21T03:32:32.547Z,74.90
2018-08-21T03:34:59.865Z,75.10
2018-08-21T03:37:27.195Z,75.20
2018-08-21T03:39:54.558Z,75.30
2018-08-21T03:42:21.884Z,75.60
2018-08-21T03:44:52.564Z,75.50
2018-08-21T03:47:19.918Z,75.80
2018-08-21T03:49:47.219Z,75.40
2018-08-21T03:52:14.539Z,75.70
2018-08-21T03:54:41.845Z,76.30
2018-08-21T03:57:09.176Z,75.70
2018-08-21T03:59:36.487Z,75.90
2018-08-21T04:02:03.801Z,75.70
2018-08-21T04:04:31.142Z,75.90
2018-08-21T04:06:58.470Z,75.80
2018-08-21T04:09:26.227Z,76.20
2018-08-21T04:11:53.599Z,76.10
2018-08-21T04:14:21.023Z,76.00
2018-08-21T04:16:48.348Z,76.40
2018-08-21T04:19:15.665Z,75.90
2018-08-21T04:21:42.989Z,76.00
2018-08-21T04:24:10.294Z,75.60
2018-08-21T04:26:37.623Z,75.70
2018-08-21T04:29:04.992Z,76.00
2018-08-21T04:31:32.271Z,75.90
2018-08-21T04:34:00.246Z,76.10
2018-08-21T04:36:27.624Z,76.10
2018-08-21T04:38:54.966Z,76.00
2018-08-21T04:41:22.329Z,76.20
2018-08-21T04:43:49.599Z,76.10
2018-08-21T04:46:17.185Z,75.90
2018-08-21T04:48:44.492Z,75.90
2018-08-21T04:51:11.855Z,76.10
2018-08-21T04:53:39.179Z,76.30
2018-08-21T04:56:06.632Z,76.50
2018-08-21T04:58:44.175Z,76.60
2018-08-21T05:01:11.480Z,76.90
2018-08-21T05:03:38.937Z,76.60
2018-08-21T05:06:06.395Z,76.20
2018-08-21T05:08:33.793Z,76.30
2018-08-21T05:11:01.210Z,76.30
2018-08-21T05:13:28.505Z,76.30
2018-08-21T05:15:55.841Z,76.10
2018-08-21T05:18:25.824Z,76.20
2018-08-21T05:20:53.225Z,75.60
2018-08-21T05:23:20.518Z,75.70
2018-08-21T05:25:48.912Z,75.60
2018-08-21T05:28:16.270Z,75.20
2018-08-21T05:30:43.608Z,75.30
2018-08-21T05:33:10.959Z,75.20
2018-08-21T05:35:38.369Z,75.00
2018-08-21T05:38:05.746Z,74.90
2018-08-21T05:40:33.129Z,74.80
2018-08-21T05:43:00.590Z,74.50
2018-08-21T05:45:28.153Z,74.80
2018-08-21T05:47:56.295Z,74.60
2018-08-21T05:50:23.954Z,74.40
2018-08-21T05:52:51.322Z,74.30
2018-08-21T05:55:18.700Z,73.80
2018-08-21T05:57:47.119Z,73.70
2018-08-21T06:00:15.464Z,73.30
2018-08-21T06:02:42.812Z,73.20
2018-08-21T06:05:10.142Z,73.40
2018-08-21T06:07:37.548Z,73.30
2018-08-21T06:10:05.262Z,73.00
2018-08-21T06:12:42.579Z,72.80
2018-08-21T06:15:09.895Z,72.40
2018-08-21T06:17:37.266Z,72.50
2018-08-21T06:20:04.590Z,72.50
2018-08-21T06:22:31.921Z,72.50
2018-08-21T06:24:59.339Z,72.50
2018-08-21T06:27:26.604Z,73.00
2018-08-21T06:29:53.918Z,73.10
2018-08-21T06:32:21.249Z,73.40
2018-08-21T06:34:48.554Z,73.40
2018-08-21T06:37:15.977Z,73.60
2018-08-21T06:39:43.382Z,73.20
2018-08-21T06:42:10.748Z,73.20
2018-08-21T06:44:38.120Z,73.30
2018-08-21T06:47:05.504Z,72.90
2018-08-21T06:49:32.825Z,72.60
2018-08-21T06:52:00.211Z,72.10
2018-08-21T06:54:27.563Z,71.80
2018-08-21T06:56:54.919Z,70.90
2018-08-21T06:59:22.557Z,70.80
2018-08-21T07:01:49.866Z,71.10
2018-08-21T07:04:17.279Z,70.80
2018-08-21T07:06:44.676Z,70.80
2018-08-21T07:09:11.971Z,70.50
2018-08-21T07:11:39.356Z,70.30
2018-08-21T07:14:06.755Z,70.20
2018-08-21T07:16:34.176Z,70.00
2018-08-21T07:19:01.467Z,69.90
2018-08-21T07:21:28.869Z,69.70
2018-08-21T07:23:56.204Z,69.60
2018-08-21T07:26:23.646Z,69.20
2018-08-21T07:28:50.992Z,68.50
2018-08-21T07:31:18.369Z,68.10
2018-08-21T07:33:45.671Z,68.10
2018-08-21T07:36:12.983Z,68.80
2018-08-21T07:38:40.338Z,68.50
2018-08-21T07:41:07.696Z,68.10
2018-08-21T07:43:34.997Z,68.20
2018-08-21T07:46:02.377Z,68.90
2018-08-21T07:48:29.680Z,68.40
2018-08-21T07:50:57.063Z,68.00
2018-08-21T07:53:24.402Z,67.80
2018-08-21T07:55:51.691Z,67.80
2018-08-21T07:58:19.019Z,67.40
2018-08-21T08:00:46.341Z,67.10
2018-08-21T08:03:13.651Z,67.40
2018-08-21T08:05:40.945Z,67.50
2018-08-21T08:08:08.347Z,67.80
2018-08-21T08:10:35.665Z,68.10
2018-08-21T08:13:02.992Z,68.40
2018-08-21T08:15:30.300Z,68.00
2018-08-21T08:17:59.329Z,68.00
2018-08-21T08:20:26.684Z,68.30
2018-08-21T08:22:54.066Z,67.70
2018-08-21T08:25:21.323Z,67.90
2018-08-21T08:27:48.672Z,68.00
2018-08-21T08:30:15.983Z,67.80
2018-08-21T08:32:43.349Z,67.40
2018-08-21T08:35:10.672Z,67.90
2018-08-21T08:37:38.014Z,67.40
2018-08-21T08:40:05.412Z,66.80
2018-08-21T08:42:32.783Z,67.00
2018-08-21T08:45:00.105Z,66.70
2018-08-21T08:47:27.436Z,66.70
2018-08-21T08:49:54.761Z,67.20
2018-08-21T08:52:22.080Z,67.20
2018-08-21T08:54:49.452Z,67.50
2018-08-21T08:57:16.776Z,66.60
2018-08-21T08:59:47.611Z,66.20
2018-08-21T09:02:14.916Z,65.80
2018-08-21T09:04:42.242Z,65.70
2018-08-21T09:07:09.641Z,65.10
2018-08-21T09:09:36.990Z,65.40
2018-08-21T09:12:04.507Z,66.00
2018-08-21T09:14:31.834Z,66.30
2018-08-21T09:17:10.739Z,65.90
2018-08-21T09:19:48.103Z,65.10
2018-08-21T09:22:15.468Z,64.20
2018-08-21T09:24:42.788Z,63.50
2018-08-21T09:27:10.166Z,64.10
2018-08-21T09:29:37.556Z,64.00
2018-08-21T09:32:04.935Z,63.30
2018-08-21T09:34:32.265Z,63.30
2018-08-21T09:37:03.104Z,62.90
2018-08-21T09:39:30.623Z,61.70
2018-08-21T09:42:07.355Z,62.10
2018-08-21T09:44:34.711Z,63.10
2018-08-21T09:47:02.022Z,63.20
2018-08-21T09:49:30.001Z,62.70
2018-08-21T09:51:57.312Z,62.40
2018-08-21T09:54:24.623Z,62.20
2018-08-21T09:56:51.940Z,62.30
2018-08-21T09:59:19.259Z,61.70
2018-08-21T10:01:46.566Z,62.10
2018-08-21T10:04:13.890Z,61.10
2018-08-21T10:06:41.249Z,61.10
2018-08-21T10:09:08.552Z,61.00
2018-08-21T10:11:35.912Z,60.70
2018-08-21T10:14:03.272Z,61.10
2018-08-21T10:16:30.576Z,60.70
2018-08-21T10:18:57.888Z,60.20
2018-08-21T10:21:25.227Z,59.50
2018-08-21T10:23:52.542Z,58.40
2018-08-21T10:26:24.911Z,58.00
2018-08-21T10:28:52.220Z,57.30
2018-08-21T10:31:19.583Z,57.20
2018-08-21T10:33:46.893Z,57.40
2018-08-21T10:36:14.213Z,57.70
2018-08-21T10:38:41.538Z,57.70
2018-08-21T10:41:08.838Z,58.00
2018-08-21T10:43:36.223Z,57.30
2018-08-21T10:46:03.536Z,56.30
2018-08-21T10:48:30.827Z,54.90
2018-08-21T10:50:58.216Z,55.50
2018-08-21T10:53:25.530Z,55.10
2018-08-21T10:55:52.970Z,54.10
2018-08-21T10:58:20.260Z,53.90
2018-08-21T11:00:47.568Z,54.10
2018-08-21T11:03:25.023Z,54.10
2018-08-21T11:05:52.796Z,54.00
2018-08-21T11:08:20.135Z,52.40
2018-08-21T11:10:47.479Z,52.20
2018-08-21T11:13:14.796Z,51.60
2018-08-21T11:15:42.106Z,51.90
2018-08-21T11:18:09.629Z,52.10
2018-08-21T11:20:36.897Z,52.20
2018-08-21T11:23:04.294Z,52.70
2018-08-21T11:25:31.610Z,53.00
2018-08-21T11:27:58.956Z,52.80
2018-08-21T11:30:26.282Z,53.10
2018-08-21T11:32:53.692Z,53.70
2018-08-21T11:35:21.049Z,53.80
2018-08-21T11:37:48.386Z,53.90
2018-08-21T11:40:15.668Z,52.70
2018-08-21T11:42:42.945Z,53.30
2018-08-21T11:45:10.275Z,54.00
2018-08-21T11:47:37.654Z,53.10
2018-08-21T11:50:06.011Z,53.90
2018-08-21T11:52:33.298Z,54.00
2018-08-21T11:55:00.696Z,53.00
2018-08-21T11:57:28.020Z,53.10
2018-08-21T11:59:55.330Z,52.50
2018-08-21T12:02:22.674Z,52.40
2018-08-21T12:04:49.959Z,51.60
2018-08-21T12:07:17.278Z,52.10
2018-08-21T12:09:44.584Z,52.70
2018-08-21T12:12:11.930Z,52.70
2018-08-21T12:14:39.250Z,52.70
2018-08-21T12:17:06.603Z,53.20
2018-08-21T12:19:33.911Z,53.30
2018-08-21T12:22:01.215Z,53.60
2018-08-21T12:24:28.539Z,53.40
2018-08-21T12:26:55.923Z,53.30
2018-08-21T12:29:23.243Z,52.60
2018-08-21T12:31:50.547Z,52.40
2018-08-21T12:34:18.084Z,53.10
2018-08-21T12:36:45.324Z,53.20
2018-08-21T12:39:12.614Z,53.70
2018-08-21T12:41:39.922Z,53.60
2018-08-21T12:44:07.249Z,53.30
2018-08-21T12:46:34.562Z,53.90
2018-08-21T12:49:01.879Z,53.90
2018-08-21T12:51:29.196Z,54.50
2018-08-21T12:53:56.516Z,54.70
2018-08-21T12:56:23.821Z,54.60
2018-08-21T12:58:52.030Z,53.50
2018-08-21T13:01:19.437Z,54.40
2018-08-21T13:03:46.746Z,54.80
2018-08-21T13:06:14.097Z,54.70
2018-08-21T13:08:41.403Z,55.20
2018-08-21T13:11:08.775Z,54.10
2018-08-21T13:13:36.128Z,54.70
2018-08-21T13:16:03.436Z,54.10
2018-08-21T13:18:30.855Z,54.00
2018-08-21T13:20:58.173Z,53.40
2018-08-21T13:23:25.477Z,52.80
2018-08-21T13:25:52.813Z,53.10
2018-08-21T13:28:20.119Z,52.70
2018-08-21T13:30:47.443Z,52.40
2018-08-21T13:33:14.790Z,52.10
2018-08-21T13:35:42.128Z,52.20
2018-08-21T13:38:09.416Z,52.40
2018-08-21T13:40:36.759Z,52.50
2018-08-21T13:43:04.091Z,52.30
2018-08-21T13:45:31.415Z,52.30
2018-08-21T13:47:58.736Z,52.70
2018-08-21T13:50:26.079Z,51.60
2018-08-21T13:52:53.398Z,51.80
2018-08-21T13:55:20.715Z,51.40
2018-08-21T13:57:48.060Z,51.40
2018-08-21T14:00:15.385Z,51.40
2018-08-21T14:02:42.725Z,52.20
2018-08-21T14:05:10.027Z,52.40
2018-08-21T14:07:37.434Z,51.80
2018-08-21T14:10:04.767Z,51.40
2018-08-21T14:12:32.166Z,51.50
2018-08-21T14:14:59.450Z,52.00
2018-08-21T14:17:26.783Z,51.60
2018-08-21T14:19:54.121Z,51.20
2018-08-21T14:22:28.227Z,51.20
2018-08-21T14:24:55.671Z,51.20
2018-08-21T14:27:22.997Z,50.70
2018-08-21T14:29:50.327Z,50.50
2018-08-21T14:32:17.630Z,50.80
2018-08-21T14:34:44.972Z,50.90
2018-08-21T14:37:12.258Z,51.00
2018-08-21T14:39:39.570Z,50.90
2018-08-21T14:42:06.891Z,50.60
2018-08-21T14:44:34.253Z,51.00
2018-08-21T14:47:01.585Z,50.80
2018-08-21T14:49:28.873Z,50.30
2018-08-21T14:51:56.269Z,49.80
2018-08-21T14:54:23.600Z,49.90
2018-08-21T14:56:50.919Z,49.80
2018-08-21T14:59:18.279Z,49.40
2018-08-21T15:01:45.622Z,49.30
2018-08-21T15:04:12.926Z,49.50
2018-08-21T15:06:40.352Z,48.70
2018-08-21T15:09:07.675Z,49.40
2018-08-21T15:11:35.021Z,49.10
2018-08-21T15:14:02.355Z,49.70
2018-08-21T15:16:29.690Z,49.60
2018-08-21T15:18:57.031Z,49.40
2018-08-21T15:21:24.385Z,49.50
2018-08-21T15:23:51.719Z,48.80
2018-08-21T15:26:19.075Z,48.70
2018-08-21T15:28:46.469Z,49.40
2018-08-21T15:31:13.829Z,49.50
2018-08-21T15:33:41.192Z,49.30
2018-08-21T15:36:08.636Z,49.20
2018-08-21T15:38:36.075Z,49.10
2018-08-21T15:41:03.530Z,49.00
2018-08-21T15:43:30.921Z,48.90
2018-08-21T15:45:58.209Z,49.90
2018-08-21T15:48:25.617Z,48.90
2018-08-21T15:50:52.971Z,49.70
2018-08-21T15:53:20.307Z,49.80
2018-08-21T15:55:47.647Z,49.40
2018-08-21T15:58:15.059Z,49.30
2018-08-21T16:00:42.390Z,48.50
2018-08-21T16:03:09.750Z,47.80
2018-08-21T16:05:37.162Z,47.70
2018-08-21T16:08:04.530Z,47.70
2018-08-21T16:10:31.880Z,48.40
2018-08-21T16:12:59.204Z,47.70
2018-08-21T16:15:26.598Z,47.60
2018-08-21T16:17:53.913Z,47.40
2018-08-21T16:20:21.220Z,47.20
2018-08-21T16:22:48.591Z,47.80
2018-08-21T16:25:15.850Z,45.80
2018-08-21T16:27:43.184Z,45.50
2018-08-21T16:30:10.507Z,46.10
2018-08-21T16:32:37.925Z,45.00
2018-08-21T16:35:05.240Z,44.50
2018-08-21T16:37:32.639Z,43.90
2018-08-21T16:40:00.318Z,44.00
2018-08-21T16:42:27.294Z,42.30
2018-08-21T16:44:54.593Z,41.20
2018-08-21T16:47:21.907Z,41.60
2018-08-21T16:49:49.273Z,41.40
2018-08-21T16:52:16.554Z,40.80
2018-08-21T16:54:43.862Z,40.30
2018-08-21T16:57:11.357Z,41.10
2018-08-21T16:59:38.787Z,41.40
2018-08-21T17:02:06.103Z,40.90
2018-08-21T17:04:33.435Z,41.30
2018-08-21T17:07:00.758Z,41.80
2018-08-21T17:09:28.065Z,41.80
2018-08-21T17:11:55.380Z,42.00
2018-08-21T17:14:22.684Z,43.10
2018-08-21T17:16:50.008Z,43.50
2018-08-21T17:19:17.310Z,43.60
2018-08-21T17:21:44.628Z,43.90
2018-08-21T17:24:12.052Z,44.80
2018-08-21T17:26:39.379Z,45.30
2018-08-21T17:29:06.723Z,47.00
2018-08-21T17:31:34.090Z,47.40
2018-08-21T17:34:01.397Z,48.00
2018-08-21T17:36:28.689Z,48.30
2018-08-21T17:38:56.011Z,48.80
2018-08-21T17:41:23.356Z,49.50
2018-08-21T17:43:50.666Z,50.00
2018-08-21T17:46:17.998Z,50.00
2018-08-21T17:48:45.301Z,50.30
2018-08-21T17:51:12.639Z,50.60
2018-08-21T17:53:40.034Z,51.30
2018-08-21T17:56:07.357Z,51.70
2018-08-21T17:58:34.697Z,51.60
2018-08-21T18:01:02.054Z,51.60
2018-08-21T18:03:29.345Z,51.90
2018-08-21T18:05:56.700Z,52.30
2018-08-21T18:08:24.199Z,52.40
2018-08-21T18:10:51.520Z,52.70
2018-08-21T18:13:18.878Z,53.30
2018-08-21T18:15:46.197Z,53.40
2018-08-21T18:18:14.383Z,53.00
2018-08-21T18:20:41.695Z,53.50
2018-08-21T18:23:09.015Z,53.30
2018-08-21T18:25:36.406Z,53.30
2018-08-21T18:28:04.181Z,53.30
2018-08-21T18:30:31.497Z,53.20
2018-08-21T18:32:58.801Z,54.00
2018-08-21T18:35:26.189Z,53.70
2018-08-21T18:37:53.458Z,53.90
2018-08-21T18:40:20.775Z,54.10
2018-08-21T18:42:48.082Z,54.30
2018-08-21T18:45:15.396Z,54.60
2018-08-21T18:47:42.734Z,54.90
2018-08-21T18:50:10.054Z,54.80
2018-08-21T18:52:37.451Z,55.10
2018-08-21T18:55:05.270Z,55.10
2018-08-21T18:57:32.580Z,55.40
2018-08-21T18:59:59.917Z,55.50
2018-08-21T19:02:27.221Z,55.60
2018-08-21T19:04:54.562Z,55.80
2018-08-21T19:07:21.865Z,55.70
2018-08-21T19:09:49.206Z,56.30
2018-08-21T19:12:16.523Z,56.30
2018-08-21T19:14:43.880Z,56.10
2018-08-21T19:17:11.188Z,56.10
2018-08-21T19:19:38.551Z,56.20
2018-08-21T19:22:05.867Z,56.40
2018-08-21T19:24:33.234Z,56.50
2018-08-21T19:27:00.634Z,56.70
2018-08-21T19:29:27.939Z,56.90
2018-08-21T19:31:55.251Z,57.30
2018-08-21T19:34:22.603Z,57.40
2018-08-21T19:36:49.914Z,57.10
2018-08-21T19:39:17.234Z,57.20
2018-08-21T19:41:44.631Z,57.50
2018-08-21T19:44:12.005Z,57.50
2018-08-21T19:46:39.352Z,57.60
2018-08-21T19:49:06.692Z,57.90
2018-08-21T19:51:34.047Z,58.40
2018-08-21T19:54:01.375Z,58.70
2018-08-21T19:56:28.681Z,58.40
2018-08-21T19:58:56.064Z,58.40
2018-08-21T20:01:23.809Z,58.70
2018-08-21T20:03:51.200Z,58.50
2018-08-21T20:06:18.492Z,58.40
2018-08-21T20:08:45.862Z,58.40
2018-08-21T20:11:13.186Z,58.40
2018-08-21T20:13:40.559Z,58.50
2018-08-21T20:16:07.861Z,58.20
2018-08-21T20:18:35.247Z,58.10
2018-08-21T20:21:02.571Z,58.20
2018-08-21T20:23:29.880Z,58.20
2018-08-21T20:25:57.637Z,58.30
2018-08-21T20:28:24.988Z,58.60
2018-08-21T20:30:52.331Z,58.50
2018-08-21T20:33:19.648Z,58.60
2018-08-21T20:35:46.948Z,58.50
2018-08-21T20:38:14.283Z,58.50
2018-08-21T20:40:42.483Z,58.50
2018-08-21T20:43:09.824Z,58.80
2018-08-21T20:45:37.136Z,58.90
2018-08-21T20:48:04.480Z,58.60
2018-08-21T20:50:31.783Z,58.60
2018-08-21T20:52:59.162Z,58.70
2018-08-21T20:55:26.456Z,58.80
2018-08-21T20:57:53.751Z,59.10
2018-08-21T21:00:21.080Z,59.20
2018-08-21T21:02:48.376Z,59.60
2018-08-21T21:05:15.708Z,59.20
2018-08-21T21:07:43.032Z,59.00
2018-08-21T21:10:10.344Z,59.10
2018-08-21T21:12:42.642Z,59.10
2018-08-21T21:15:21.358Z,59.40
2018-08-21T21:18:00.024Z,59.30
2018-08-21T21:20:38.765Z,59.60
2018-08-21T21:23:17.549Z,59.40
2018-08-21T21:25:44.875Z,59.50
2018-08-21T21:28:12.163Z,59.40
2018-08-21T21:30:39.505Z,59.80
2018-08-21T21:33:06.832Z,59.50
2018-08-21T21:35:34.159Z,59.60
2018-08-21T21:38:01.498Z,59.50
2018-08-21T21:40:28.824Z,59.60
2018-08-21T21:42:56.172Z,59.90
2018-08-21T21:45:23.487Z,59.80
2018-08-21T21:47:50.976Z,59.70
2018-08-21T21:50:18.287Z,59.90
2018-08-21T21:52:45.589Z,60.20
2018-08-21T21:55:12.917Z,60.30
2018-08-21T21:57:40.251Z,60.50
2018-08-21T22:00:08.146Z,60.30
2018-08-21T22:02:35.480Z,60.30
2018-08-21T22:05:02.805Z,60.50
2018-08-21T22:07:30.151Z,60.30
2018-08-21T22:09:57.490Z,60.60
2018-08-21T22:12:24.942Z,60.70
2018-08-21T22:14:52.238Z,61.00
2018-08-21T22:17:19.567Z,60.70
2018-08-21T22:19:46.893Z,61.00
2018-08-21T22:22:14.212Z,60.90
2018-08-21T22:24:41.529Z,60.70
2018-08-21T22:27:08.867Z,60.90
2018-08-21T22:29:36.172Z,60.70
2018-08-21T22:32:03.522Z,61.00
2018-08-21T22:34:30.846Z,61.20
2018-08-21T22:36:58.163Z,61.20
2018-08-21T22:39:25.505Z,61.50
2018-08-21T22:41:52.834Z,61.70
2018-08-21T22:44:20.160Z,61.40
2018-08-21T22:46:47.461Z,61.70
2018-08-21T22:49:14.824Z,62.30
2018-08-21T22:51:42.181Z,61.90
2018-08-21T22:54:09.482Z,61.60
2018-08-21T22:56:36.814Z,62.00
2018-08-21T22:59:04.179Z,62.70
2018-08-21T23:01:31.471Z,62.00
2018-08-21T23:03:58.776Z,62.20
2018-08-21T23:06:26.099Z,62.40
2018-08-21T23:08:53.426Z,62.40
2018-08-21T23:11:20.727Z,62.70
2018-08-21T23:13:48.088Z,62.70
2018-08-21T23:16:15.451Z,62.70
2018-08-21T23:18:42.859Z,62.40
2018-08-21T23:21:10.213Z,62.60
2018-08-21T23:23:37.568Z,62.80
2018-08-21T23:26:05.452Z,63.20
2018-08-21T23:28:32.788Z,63.20
2018-08-21T23:31:00.214Z,63.40
2018-08-21T23:33:27.523Z,63.40
2018-08-21T23:35:54.842Z,63.80
2018-08-21T23:38:22.188Z,63.90
2018-08-21T23:40:49.542Z,63.80
2018-08-21T23:54:30.277Z,64.00
2018-08-21T23:56:57.615Z,64.50
2018-08-21T23:59:24.976Z,64.40
